Time;durP1;ratioP1;P1;durP2;ratioP2;P2;SDS_P1;SDS_P2;PMS_P1;PMS_P2;Temp;Humidity;BMP_temperature;BMP_pressure;BME280_temperature;BME280_humidity;BME280_pressure;Samples;Min_cycle;Max_cycle;Signal;HPM_P1;HPM_P2
2022/01/08 00:01:47;;;;;;;;;;;;;;;20.82;29.98;95352.00;10340187;28;2092;-59
2022/01/08 00:06:48;;;;;;;;;;;;;;;20.82;30.22;95341.47;10358464;28;1988;-58
2022/01/08 00:11:48;;;;;;;;;;;;;;;20.84;30.09;95343.81;10350554;28;1927;-59
2022/01/08 00:16:49;;;;;;;;;;;;;;;20.81;30.08;95334.63;10357644;28;1950;-60
2022/01/08 00:21:49;;;;;;;;;;;;;;;20.82;30.30;95336.19;10355594;28;2150;-59
2022/01/08 00:26:50;;;;;;;;;;;;;;;20.83;30.20;95327.25;10357790;28;1862;-59
2022/01/08 00:31:50;;;;;;;;;;;;;;;20.82;29.99;95323.03;10360614;28;1855;-58
2022/01/08 00:36:51;;;;;;;;;;;;;;;20.79;30.14;95320.94;10356527;28;1910;-60
2022/01/08 00:41:51;;;;;;;;;;;;;;;20.81;30.13;95305.63;10358352;28;1913;-58
2022/01/08 00:46:52;;;;;;;;;;;;;;;20.80;30.31;95298.81;10356270;28;1815;-58
2022/01/08 00:51:52;;;;;;;;;;;;;;;20.79;29.93;95299.88;10359221;28;1907;-60
2022/01/08 00:56:53;;;;;;;;;;;;;;;20.79;29.96;95288.56;10357640;28;1902;-59
2022/01/08 01:01:54;;;;;;;;;;;;;;;20.78;30.30;95279.88;10359261;28;1958;-60
2022/01/08 01:06:54;;;;;;;;;;;;;;;20.80;30.28;95272.47;10357136;28;2119;-58
2022/01/08 01:11:55;;;;;;;;;;;;;;;20.79;30.07;95268.25;10357897;28;1866;-60
2022/01/08 01:16:56;;;;;;;;;;;;;;;20.80;29.87;95258.53;10345171;28;1969;-60
2022/01/08 01:21:58;;;;;;;;;;;;;;;20.80;30.09;95255.88;10354346;28;1850;-61
2022/01/08 01:48:12;;;;;;;;;;;;;;;20.79;29.81;95209.56;10354227;28;1770;-59
2022/01/08 01:53:12;;;;;;;;;;;;;;;20.79;29.78;95202.41;10358246;28;1965;-59
2022/01/08 01:58:13;;;;;;;;;;;;;;;20.79;30.01;95183.97;10357659;28;1903;-59
2022/01/08 02:03:13;;;;;;;;;;;;;;;20.79;29.85;95178.72;10358597;28;1944;-57
2022/01/08 02:08:14;;;;;;;;;;;;;;;20.78;29.85;95181.63;10356427;28;1983;-57
2022/01/08 02:13:24;;;;;;;;;;;;;;;20.79;30.10;95177.94;10356415;28;1986;-57
2022/01/08 02:18:27;;;;;;;;;;;;;;;20.79;30.01;95165.53;10356760;28;2046;-60
2022/01/08 02:23:30;;;;;;;;;;;;;;;20.80;29.93;95156.59;10358297;28;1980;-57
2022/01/08 02:28:40;;;;;;;;;;;;;;;20.80;29.98;95153.94;10358690;28;1956;-59
2022/01/08 02:33:41;;;;;;;;;;;;;;;20.81;29.88;95139.69;10363800;28;1975;-59
2022/01/08 02:38:42;;;;;;;;;;;;;;;20.80;29.76;95139.97;10365690;28;1880;-60
2022/01/08 02:43:46;;;;;;;;;;;;;;;20.80;29.90;95121.53;10359009;28;1863;-59
2022/01/08 02:48:46;;;;;;;;;;;;;;;20.81;29.80;95115.97;10358701;28;1895;-61
2022/01/08 02:53:47;;;;;;;;;;;;;;;20.84;29.88;95106.72;10342835;28;2107;-59
2022/01/08 02:58:48;;;;;;;;;;;;;;;20.80;29.94;95106.53;10358291;28;1698;-61
2022/01/08 03:03:48;;;;;;;;;;;;;;;20.84;29.78;95094.34;10362489;28;1441;-59
2022/01/08 03:08:49;;;;;;;;;;;;;;;20.82;29.71;95088.59;10364839;28;1548;-60
2022/01/08 03:13:50;;;;;;;;;;;;;;;20.85;29.70;95066.94;10360486;28;1914;-60
2022/01/08 03:18:50;;;;;;;;;;;;;;;20.85;29.76;95061.66;10363414;28;1453;-61
2022/01/08 03:23:59;;;;;;;;;;;;;;;20.84;29.63;95068.00;10362355;28;1623;-61
2022/01/08 03:28:59;;;;;;;;;;;;;;;20.74;29.13;95052.38;10360010;28;1309;-60
2022/01/08 03:34:00;;;;;;;;;;;;;;;20.77;29.66;95051.78;10361129;28;1910;-59
2022/01/08 03:39:01;;;;;;;;;;;;;;;20.75;29.79;95040.00;10365332;28;1162;-59
2022/01/08 03:44:01;;;;;;;;;;;;;;;20.72;30.06;95038.72;10361369;28;1495;-60
2022/01/08 03:54:03;;;;;;;;;;;;;;;20.77;30.03;95027.31;10359565;28;2011;-59
2022/01/08 03:59:03;;;;;;;;;;;;;;;20.79;30.03;95023.31;10359760;28;1979;-59
2022/01/08 04:04:04;;;;;;;;;;;;;;;20.82;29.88;95014.81;10357590;28;1881;-60
2022/01/08 04:09:04;;;;;;;;;;;;;;;20.83;29.88;95005.09;10360082;28;1901;-60
2022/01/08 04:14:05;;;;;;;;;;;;;;;20.82;29.58;94996.38;10370593;22;2292;-52
2022/01/08 04:19:05;;;;;;;;;;;;;;;20.80;29.71;94995.91;10356556;28;1965;-47
2022/01/08 04:24:06;;;;;;;;;;;;;;;20.81;29.74;94986.16;10387521;28;2058;-50
2022/01/08 04:29:07;;;;;;;;;;;;;;;20.83;29.65;94976.91;10397567;28;1880;-47
2022/01/08 04:34:08;;;;;;;;;;;;;;;20.81;29.51;94971.09;10395306;28;1917;-52
2022/01/08 04:39:08;;;;;;;;;;;;;;;20.81;29.56;94968.47;10394077;28;1929;-47
2022/01/08 04:44:09;;;;;;;;;;;;;;;20.80;29.37;94964.28;10397492;28;1903;-49
2022/01/08 04:49:10;;;;;;;;;;;;;;;20.81;29.45;94959.81;10395673;28;1823;-48
2022/01/08 04:54:10;;;;;;;;;;;;;;;20.80;29.43;94958.25;10398133;28;1906;-52
2022/01/08 04:59:11;;;;;;;;;;;;;;;20.77;29.44;94962.22;10394692;28;1920;-49
2022/01/08 05:04:11;;;;;;;;;;;;;;;20.77;29.25;94978.03;10397544;28;1816;-54
2022/01/08 05:09:11;;;;;;;;;;;;;;;20.77;29.34;95001.75;10398874;28;1862;-50
2022/01/08 05:14:12;;;;;;;;;;;;;;;20.78;29.25;95039.41;10398310;28;1977;-47
2022/01/08 05:19:21;;;;;;;;;;;;;;;20.77;29.33;95040.50;10398036;28;1706;-46
2022/01/08 05:24:21;;;;;;;;;;;;;;;20.76;29.20;95021.28;10396576;28;1854;-48
2022/01/08 05:29:22;;;;;;;;;;;;;;;20.76;29.09;95008.09;10392854;28;1848;-47
2022/01/08 05:34:22;;;;;;;;;;;;;;;20.77;28.96;94996.47;10400019;28;1918;-47
2022/01/08 05:39:23;;;;;;;;;;;;;;;20.74;29.14;94994.44;10396377;28;1833;-52
2022/01/08 05:44:23;;;;;;;;;;;;;;;20.75;29.17;94989.97;10395719;28;1919;-48
2022/01/08 05:49:23;;;;;;;;;;;;;;;20.75;29.13;94992.59;10391668;28;1844;-52
2022/01/08 05:54:24;;;;;;;;;;;;;;;20.73;29.43;94987.59;10396727;28;2078;-47
2022/01/08 05:59:26;;;;;;;;;;;;;;;20.72;29.04;95001.84;10391191;28;1835;-47
2022/01/08 06:04:27;;;;;;;;;;;;;;;20.70;29.11;95022.44;10402296;28;1753;-46
2022/01/08 06:09:27;;;;;;;;;;;;;;;20.74;28.95;95020.78;10404373;28;1852;-50
2022/01/08 06:14:27;;;;;;;;;;;;;;;20.72;29.07;94999.22;10398558;28;1933;-51
2022/01/08 06:19:28;;;;;;;;;;;;;;;20.73;29.01;94987.59;10403149;28;1860;-48
2022/01/08 06:24:28;;;;;;;;;;;;;;;20.74;28.97;94972.59;10404215;28;1853;-53
2022/01/08 06:29:29;;;;;;;;;;;;;;;20.72;29.14;94988.69;10402197;28;1871;-50
2022/01/08 06:34:29;;;;;;;;;;;;;;;20.75;28.95;94989.97;10396198;28;1977;-51
2022/01/08 06:39:29;;;;;;;;;;;;;;;20.74;28.82;94997.06;10400340;28;1843;-46
2022/01/08 06:44:30;;;;;;;;;;;;;;;20.75;28.71;94992.59;10404067;28;1936;-51
2022/01/08 06:49:31;;;;;;;;;;;;;;;20.73;29.00;94997.38;10394778;28;1816;-47
2022/01/08 06:54:31;;;;;;;;;;;;;;;20.73;28.90;94987.59;10392200;28;1962;-48
2022/01/08 06:59:32;;;;;;;;;;;;;;;20.76;28.76;94994.94;10403992;28;1792;-51
2022/01/08 07:04:33;;;;;;;;;;;;;;;20.72;28.88;94993.94;10401835;28;1913;-50
2022/01/08 07:09:34;;;;;;;;;;;;;;;20.72;28.59;94993.94;10397917;28;1789;-49
2022/01/08 07:14:34;;;;;;;;;;;;;;;20.73;28.71;94994.75;10399188;28;1963;-49
2022/01/08 07:19:34;;;;;;;;;;;;;;;20.73;28.76;95007.91;10402486;28;1856;-49
2022/01/08 07:24:35;;;;;;;;;;;;;;;20.73;28.72;95021.84;10399159;28;1808;-49
2022/01/08 07:29:35;;;;;;;;;;;;;;;20.72;28.75;95025.56;10395180;28;1807;-47
2022/01/08 07:34:35;;;;;;;;;;;;;;;20.69;28.62;95026.13;10400173;28;1965;-50
2022/01/08 07:39:36;;;;;;;;;;;;;;;20.69;28.39;95033.25;10401114;28;1844;-46
2022/01/08 07:44:36;;;;;;;;;;;;;;;20.66;28.63;95045.16;10393920;28;1874;-52
2022/01/08 07:49:36;;;;;;;;;;;;;;;20.60;27.31;95043.69;10398985;28;1951;-51
2022/01/08 07:54:37;;;;;;;;;;;;;;;20.48;27.48;95037.31;10397551;28;1910;-48
2022/01/08 07:59:37;;;;;;;;;;;;;;;20.47;27.74;95043.63;10405572;28;1818;-49
2022/01/08 08:04:38;;;;;;;;;;;;;;;20.48;27.89;95046.00;10392841;28;1855;-48
2022/01/08 08:09:38;;;;;;;;;;;;;;;20.56;29.02;95042.69;10392087;28;1886;-46
2022/01/08 08:14:39;;;;;;;;;;;;;;;20.54;28.02;95052.75;10391380;28;1918;-50
2022/01/08 08:19:39;;;;;;;;;;;;;;;20.52;29.05;95052.25;10399148;28;1986;-48
2022/01/08 08:24:39;;;;;;;;;;;;;;;20.61;29.75;95065.53;10391404;28;1828;-50
2022/01/08 08:29:40;;;;;;;;;;;;;;;20.55;29.21;95062.19;10389731;28;1815;-51
2022/01/08 08:34:40;;;;;;;;;;;;;;;20.54;28.85;95071.19;10391699;28;1922;-46
2022/01/08 08:39:41;;;;;;;;;;;;;;;20.48;28.43;95080.22;10392494;28;1835;-46
2022/01/08 08:44:41;;;;;;;;;;;;;;;20.45;29.01;95088.69;10393915;28;1906;-47
2022/01/08 08:49:42;;;;;;;;;;;;;;;20.43;28.44;95079.50;10397426;28;1839;-46
2022/01/08 08:54:43;;;;;;;;;;;;;;;20.45;29.15;95093.16;10396722;28;1917;-52
2022/01/08 08:59:44;;;;;;;;;;;;;;;20.44;29.14;95095.03;10396797;28;1887;-47
2022/01/08 09:04:44;;;;;;;;;;;;;;;20.43;28.30;95098.72;10393184;28;1889;-49
2022/01/08 09:09:44;;;;;;;;;;;;;;;20.40;28.77;95111.69;10397990;28;1836;-50
2022/01/08 09:14:45;;;;;;;;;;;;;;;20.41;29.12;95123.78;10394604;28;1913;-47
2022/01/08 09:19:45;;;;;;;;;;;;;;;20.38;27.51;95140.91;10392026;28;1807;-49
2022/01/08 09:24:45;;;;;;;;;;;;;;;20.38;28.33;95150.69;10395861;28;1786;-46
2022/01/08 09:29:46;;;;;;;;;;;;;;;20.38;29.00;95171.75;10381887;28;1757;-48
2022/01/08 09:34:46;;;;;;;;;;;;;;;20.39;28.63;95179.34;10393274;28;1981;-47
2022/01/08 09:39:47;;;;;;;;;;;;;;;20.36;27.75;95189.66;10406835;28;1800;-47
2022/01/08 09:44:47;;;;;;;;;;;;;;;20.39;28.47;95195.13;10402222;28;2140;-47
2022/01/08 09:49:48;;;;;;;;;;;;;;;20.37;28.64;95212.28;10401492;28;1800;-46
2022/01/08 09:54:49;;;;;;;;;;;;;;;20.40;28.12;95220.41;10405205;28;1981;-46
2022/01/08 09:59:50;;;;;;;;;;;;;;;20.34;27.18;95229.41;10401231;28;1820;-46
2022/01/08 10:04:50;;;;;;;;;;;;;;;20.37;27.83;95228.06;10405470;28;1914;-49
2022/01/08 10:10:00;;;;;;;;;;;;;;;20.36;27.88;95244.94;10402673;28;2053;-50
2022/01/08 10:20:26;;;;;;;;;;;;;;;20.38;29.21;95267.25;10406623;28;1840;-40
2022/01/08 10:25:27;;;;;;;;;;;;;;;20.38;28.41;95272.53;10392163;28;2013;-43
2022/01/08 10:30:27;;;;;;;;;;;;;;;20.35;28.20;95281.00;10373019;28;1834;-41
2022/01/08 10:35:46;;;;;;;;;;;;;;;20.34;27.52;95297.09;10360924;28;1910;-41
2022/01/08 10:40:47;;;;;;;;;;;;;;;20.34;27.37;95297.84;10350418;28;2032;-43
2022/01/08 10:45:47;;;;;;;;;;;;;;;20.40;28.26;95320.44;10355904;28;1847;-39
2022/01/08 10:50:48;;;;;;;;;;;;;;;20.40;27.74;95319.66;10378245;28;1885;-43
2022/01/08 10:55:48;;;;;;;;;;;;;;;20.38;27.46;95319.91;10358888;28;2123;-47
2022/01/08 11:00:49;;;;;;;;;;;;;;;20.42;27.95;95322.78;10350981;28;1921;-41
2022/01/08 11:06:01;;;;;;;;;;;;;;;20.51;28.85;95321.88;10361640;28;1916;-40
2022/01/08 11:11:01;;;;;;;;;;;;;;;20.58;29.18;95330.22;10351599;28;1862;-41
2022/01/08 11:16:02;;;;;;;;;;;;;;;20.60;28.84;95324.66;10358408;28;1967;-42
2022/01/08 11:21:02;;;;;;;;;;;;;;;20.67;28.53;95335.63;10353731;28;1819;-41
2022/01/08 11:26:03;;;;;;;;;;;;;;;20.62;28.65;95336.47;10356980;28;1863;-44
2022/01/08 11:31:03;;;;;;;;;;;;;;;20.62;28.66;95347.00;10354893;28;1798;-42
2022/01/08 11:36:04;;;;;;;;;;;;;;;20.57;28.29;95349.69;10343688;28;1963;-39
2022/01/08 11:41:04;;;;;;;;;;;;;;;20.55;28.48;95340.50;10335223;28;1840;-45
2022/01/08 11:46:06;;;;;;;;;;;;;;;20.59;28.64;95344.94;10350918;28;1798;-44
2022/01/08 11:51:06;;;;;;;;;;;;;;;20.58;28.95;95338.13;10352263;28;1866;-42
2022/01/08 11:56:07;;;;;;;;;;;;;;;20.52;28.13;95339.25;10373479;28;1977;-40
2022/01/08 12:01:11;;;;;;;;;;;;;;;20.57;28.29;95348.91;10335826;28;1887;-42
2022/01/08 12:06:29;;;;;;;;;;;;;;;20.57;28.22;95344.44;10358549;28;1814;-41
2022/01/08 12:11:53;;;;;;;;;;;;;;;20.60;28.17;95335.97;10352716;28;1937;-43
2022/01/08 12:16:57;;;;;;;;;;;;;;;20.65;28.74;95333.25;10346036;28;2006;-45
2022/01/08 12:21:58;;;;;;;;;;;;;;;20.73;28.91;95340.53;10348878;28;2516;-40
2022/01/08 12:26:59;;;;;;;;;;;;;;;20.77;28.84;95328.34;10353676;28;2031;-40
2022/01/08 12:32:18;;;;;;;;;;;;;;;20.78;28.83;95329.94;10353191;28;1763;-41
2022/01/08 12:37:18;;;;;;;;;;;;;;;20.79;28.83;95317.56;10354527;28;1985;-41
2022/01/08 12:42:19;;;;;;;;;;;;;;;20.79;28.86;95320.94;10349136;28;2084;-41
2022/01/08 12:47:38;;;;;;;;;;;;;;;20.79;29.08;95326.22;10350365;28;1823;-40
2022/01/08 12:52:48;;;;;;;;;;;;;;;20.78;28.74;95316.75;10348752;28;1971;-40
2022/01/08 12:57:49;;;;;;;;;;;;;;;20.78;28.66;95318.59;10337066;28;1989;-41
2022/01/08 13:02:49;;;;;;;;;;;;;;;20.81;28.59;95310.91;10363996;28;1897;-41
2022/01/08 13:07:49;;;;;;;;;;;;;;;20.80;28.84;95311.19;10358935;28;1865;-41
2022/01/08 13:13:02;;;;;;;;;;;;;;;20.80;28.61;95306.72;10349390;28;2200;-41
2022/01/08 13:18:35;;;;;;;;;;;;;;;20.81;28.72;95305.63;10351721;28;1969;-40
2022/01/08 13:23:42;;;;;;;;;;;;;;;20.81;28.82;95297.75;10317207;28;1856;-43
2022/01/08 13:28:48;;;;;;;;;;;;;;;20.79;28.81;95289.34;10343136;28;1928;-41
2022/01/08 13:33:55;;;;;;;;;;;;;;;20.80;28.98;95290.91;10351648;28;1914;-42
2022/01/08 13:38:55;;;;;;;;;;;;;;;20.82;28.78;95290.63;10350151;28;1845;-50
2022/01/08 13:44:00;;;;;;;;;;;;;;;20.85;29.10;95287.44;10348347;28;1904;-44
2022/01/08 13:49:02;;;;;;;;;;;;;;;20.84;28.95;95272.69;10350351;28;2011;-44
2022/01/08 13:54:04;;;;;;;;;;;;;;;20.80;29.03;95264.56;10347030;28;1922;-47
2022/01/08 13:59:07;;;;;;;;;;;;;;;20.86;29.59;95263.44;10346567;28;1957;-41
2022/01/08 14:04:08;;;;;;;;;;;;;;;20.84;29.51;95265.56;10360367;28;1803;-41
2022/01/08 14:09:09;;;;;;;;;;;;;;;20.82;29.99;95254.53;10347051;28;1862;-44
2022/01/08 14:14:12;;;;;;;;;;;;;;;20.85;30.72;95251.34;10342436;28;1914;-45
2022/01/08 14:19:12;;;;;;;;;;;;;;;20.82;30.01;95248.47;10341691;28;2045;-42
2022/01/08 14:24:17;;;;;;;;;;;;;;;20.79;30.11;95230.63;10353217;28;1767;-43
2022/01/08 14:29:17;;;;;;;;;;;;;;;20.81;30.98;95226.63;10349306;28;1818;-42
2022/01/08 14:34:21;;;;;;;;;;;;;;;20.89;33.23;95222.56;10355660;28;1907;-42
2022/01/08 14:39:34;;;;;;;;;;;;;;;20.89;33.72;95210.19;10354593;28;1806;-44
2022/01/08 14:44:35;;;;;;;;;;;;;;;21.00;35.78;95205.50;10349034;28;1870;-43
2022/01/08 14:49:35;;;;;;;;;;;;;;;21.05;36.07;95198.34;10347097;28;2005;-44
2022/01/08 14:54:35;;;;;;;;;;;;;;;21.03;35.84;95189.94;10352969;28;1969;-45
2022/01/08 14:59:36;;;;;;;;;;;;;;;21.02;36.42;95180.47;10351936;28;1991;-44
2022/01/08 15:04:37;;;;;;;;;;;;;;;21.04;36.07;95178.31;10349155;28;1802;-42
2022/01/08 15:09:37;;;;;;;;;;;;;;;21.02;35.47;95161.22;10349595;28;1976;-46
2022/01/08 15:14:38;;;;;;;;;;;;;;;21.04;36.50;95153.84;10354818;28;2048;-45
2022/01/08 15:19:38;;;;;;;;;;;;;;;21.03;36.60;95147.78;10350513;28;1913;-44
2022/01/08 15:24:38;;;;;;;;;;;;;;;21.10;36.98;95134.25;10353245;28;1870;-43
2022/01/08 15:29:39;;;;;;;;;;;;;;;21.11;36.64;95121.81;10348464;28;2000;-49
2022/01/08 15:34:39;;;;;;;;;;;;;;;21.13;37.19;95127.59;10348584;28;2062;-50
2022/01/08 15:39:40;;;;;;;;;;;;;;;21.13;36.66;95114.41;10350286;28;2069;-45
2022/01/08 15:44:42;;;;;;;;;;;;;;;21.08;35.72;95103.97;10348039;28;1807;-45
2022/01/08 15:49:43;;;;;;;;;;;;;;;21.08;36.46;95103.97;10348824;28;1861;-47
2022/01/08 15:54:43;;;;;;;;;;;;;;;21.04;35.33;95094.00;10347731;28;1964;-45
2022/01/08 15:59:44;;;;;;;;;;;;;;;21.05;34.91;95103.47;10350161;28;1799;-45
2022/01/08 16:04:44;;;;;;;;;;;;;;;21.03;33.97;95095.09;10352214;28;1810;-45
2022/01/08 16:09:45;;;;;;;;;;;;;;;21.01;33.75;95086.66;10350417;28;1838;-48
2022/01/08 16:14:45;;;;;;;;;;;;;;;21.01;34.71;95091.94;10352753;28;1974;-47
2022/01/08 16:19:45;;;;;;;;;;;;;;;20.99;33.92;95080.13;10348767;28;2015;-49
2022/01/08 16:24:46;;;;;;;;;;;;;;;20.96;33.60;95063.03;10349010;28;1830;-48
2022/01/08 16:29:46;;;;;;;;;;;;;;;20.96;32.90;95055.13;10352278;28;1966;-44
2022/01/08 16:34:47;;;;;;;;;;;;;;;20.97;33.76;95051.44;10344807;28;2006;-47
2022/01/08 16:39:47;;;;;;;;;;;;;;;20.94;33.26;95041.47;10358470;28;2050;-50
2022/01/08 16:44:47;;;;;;;;;;;;;;;20.89;32.71;95035.53;10340348;28;1858;-50
2022/01/08 16:49:48;;;;;;;;;;;;;;;20.88;32.26;95021.56;10341057;28;1833;-51
2022/01/08 16:54:48;;;;;;;;;;;;;;;20.90;33.12;95016.78;10347027;28;2012;-51
2022/01/08 16:59:49;;;;;;;;;;;;;;;20.92;33.57;95000.69;10346974;28;1819;-46
2022/01/08 17:04:49;;;;;;;;;;;;;;;20.92;33.48;94993.56;10339826;28;2031;-49
2022/01/08 17:09:51;;;;;;;;;;;;;;;20.86;32.83;94984.19;10352101;28;1963;-49
2022/01/08 17:14:52;;;;;;;;;;;;;;;20.84;32.63;94973.16;10353227;28;1979;-51
2022/01/08 17:19:52;;;;;;;;;;;;;;;20.83;32.92;94966.34;10354840;28;1916;-47
2022/01/08 17:24:53;;;;;;;;;;;;;;;20.83;32.73;94947.13;10353776;28;1854;-47
2022/01/08 17:29:53;;;;;;;;;;;;;;;20.86;33.48;94938.63;10345785;28;2071;-48
2022/01/08 17:34:54;;;;;;;;;;;;;;;20.90;33.41;94927.22;10344565;28;1957;-46
2022/01/08 17:39:54;;;;;;;;;;;;;;;20.90;33.38;94924.56;10352760;28;1377;-41
2022/01/08 17:44:55;;;;;;;;;;;;;;;20.92;33.66;94917.16;10363163;28;1715;-42
2022/01/08 17:49:55;;;;;;;;;;;;;;;20.92;32.60;94911.09;10370590;28;1888;-42
2022/01/08 17:54:55;;;;;;;;;;;;;;;20.86;33.17;94894.63;10347004;28;1969;-46
2022/01/08 17:59:56;;;;;;;;;;;;;;;20.86;32.74;94892.00;10354297;28;1915;-48
2022/01/08 18:04:57;;;;;;;;;;;;;;;20.80;31.49;94882.66;10352667;28;1365;-45
2022/01/08 18:09:58;;;;;;;;;;;;;;;20.80;30.79;94879.22;10370965;28;1722;-47
2022/01/08 18:14:58;;;;;;;;;;;;;;;20.78;31.85;94874.25;10374048;28;1914;-50
2022/01/08 18:19:59;;;;;;;;;;;;;;;20.79;31.27;94872.41;10374080;28;1323;-49
2022/01/08 18:24:59;;;;;;;;;;;;;;;20.78;31.58;94863.72;10357677;28;1414;-50
2022/01/08 18:29:59;;;;;;;;;;;;;;;20.77;31.39;94859.50;10368003;28;1798;-48
2022/01/08 18:35:00;;;;;;;;;;;;;;;20.75;29.81;94850.38;10356160;28;1910;-46
2022/01/08 18:40:01;;;;;;;;;;;;;;;20.72;30.12;94835.94;10359429;28;1552;-46
2022/01/08 18:45:01;;;;;;;;;;;;;;;20.78;31.43;94824.22;10354435;28;1388;-47
2022/01/08 18:50:02;;;;;;;;;;;;;;;20.73;30.06;94815.66;10352447;28;1235;-48
2022/01/08 18:55:05;;;;;;;;;;;;;;;20.89;32.01;94808.97;10353451;28;1910;-48
2022/01/08 19:00:05;;;;;;;;;;;;;;;20.94;32.75;94791.19;10351433;28;1483;-46
2022/01/08 19:05:06;;;;;;;;;;;;;;;20.98;32.29;94775.56;10358322;28;2223;-45
2022/01/08 19:10:07;;;;;;;;;;;;;;;20.99;32.18;94771.84;10353402;28;1393;-44
2022/01/08 19:15:08;;;;;;;;;;;;;;;21.02;32.42;94750.19;10353319;28;1969;-48
2022/01/08 19:20:08;;;;;;;;;;;;;;;21.03;32.58;94744.66;10348537;28;2145;-44
2022/01/08 19:25:09;;;;;;;;;;;;;;;21.02;32.48;94742.28;10353010;28;2327;-44
2022/01/08 19:30:09;;;;;;;;;;;;;;;21.04;32.09;94719.09;10350813;28;1502;-44
2022/01/08 19:35:11;;;;;;;;;;;;;;;21.03;31.34;94704.34;10349272;28;1918;-46
2022/01/08 19:40:11;;;;;;;;;;;;;;;21.05;31.69;94684.53;10353321;28;1873;-48
2022/01/08 19:45:12;;;;;;;;;;;;;;;21.06;32.13;94683.44;10347739;28;1714;-43
2022/01/08 19:50:12;;;;;;;;;;;;;;;21.11;31.94;94671.22;10353596;28;1476;-48
2022/01/08 19:55:12;;;;;;;;;;;;;;;21.14;32.18;94654.81;10353433;28;1969;-49
2022/01/08 20:00:13;;;;;;;;;;;;;;;21.17;32.50;94643.63;10345781;28;1774;-48
2022/01/08 20:05:14;;;;;;;;;;;;;;;21.17;32.61;94627.81;10353555;28;1328;-45
2022/01/08 20:10:15;;;;;;;;;;;;;;;21.14;32.69;94628.44;10344426;28;1951;-44
2022/01/08 20:15:15;;;;;;;;;;;;;;;21.15;32.64;94614.19;10369575;28;1965;-45
2022/01/08 20:20:16;;;;;;;;;;;;;;;21.12;32.68;94604.25;10353078;28;1497;-49
2022/01/08 20:25:16;;;;;;;;;;;;;;;21.12;32.06;94599.00;10366893;28;2144;-42
2022/01/08 20:30:16;;;;;;;;;;;;;;;21.13;32.35;94582.88;10367366;28;1907;-45
2022/01/08 20:35:17;;;;;;;;;;;;;;;21.18;32.58;94574.84;10352095;28;1906;-42
2022/01/08 20:40:17;;;;;;;;;;;;;;;21.16;32.41;94565.69;10353678;28;2157;-43
2022/01/08 20:45:18;;;;;;;;;;;;;;;21.08;32.11;94553.25;10354097;28;1822;-42
2022/01/08 20:50:18;;;;;;;;;;;;;;;21.08;32.09;94542.72;10355996;28;1484;-43
2022/01/08 20:55:21;;;;;;;;;;;;;;;21.07;32.26;94539.31;10352907;28;1971;-42
2022/01/08 21:00:24;;;;;;;;;;;;;;;21.06;31.87;94538.50;10349954;28;1179;-39
2022/01/08 21:05:24;;;;;;;;;;;;;;;21.05;32.03;94521.16;10333108;28;1790;-43
2022/01/08 21:10:26;;;;;;;;;;;;;;;21.05;32.26;94513.25;10364329;28;2049;-44
2022/01/08 21:15:27;;;;;;;;;;;;;;;21.04;30.91;94480.09;10345845;28;2202;-44
2022/01/08 21:20:27;;;;;;;;;;;;;;;20.83;28.77;94468.53;10346972;28;2020;-42
2022/01/08 21:25:28;;;;;;;;;;;;;;;20.89;29.28;94454.16;10353700;28;1914;-43
2022/01/08 21:30:28;;;;;;;;;;;;;;;20.85;30.90;94434.00;10360491;28;1887;-45
2022/01/08 21:35:31;;;;;;;;;;;;;;;20.91;31.49;94411.69;10362418;28;1987;-41
2022/01/08 21:40:32;;;;;;;;;;;;;;;20.93;31.66;94397.13;10361903;28;2047;-43
2022/01/08 21:45:37;;;;;;;;;;;;;;;20.93;31.42;94380.56;10357257;28;1807;-43
2022/01/08 21:50:37;;;;;;;;;;;;;;;20.90;31.18;94374.03;10355817;28;1880;-41
2022/01/08 21:55:38;;;;;;;;;;;;;;;20.92;30.96;94355.28;10357559;28;1967;-42
2022/01/08 22:00:38;;;;;;;;;;;;;;;20.90;30.96;94336.38;10372105;28;1996;-46
2022/01/08 22:05:39;;;;;;;;;;;;;;;20.91;31.24;94317.66;10360214;28;2101;-43
2022/01/08 22:10:39;;;;;;;;;;;;;;;20.88;31.27;94306.94;10370508;28;1861;-42
2022/01/08 22:15:39;;;;;;;;;;;;;;;20.87;30.92;94293.03;10370018;28;1906;-42
2022/01/08 22:20:40;;;;;;;;;;;;;;;20.85;31.01;94265.44;10357140;28;1869;-45
2022/01/08 22:25:40;;;;;;;;;;;;;;;20.87;30.71;94242.97;10359732;28;1864;-43
2022/01/08 22:30:41;;;;;;;;;;;;;;;20.86;30.74;94238.00;10356933;28;1949;-40
2022/01/08 22:35:41;;;;;;;;;;;;;;;20.87;30.76;94215.84;10356469;28;1965;-39
2022/01/08 22:40:43;;;;;;;;;;;;;;;20.84;30.79;94211.97;10355207;28;1826;-39
2022/01/08 22:45:44;;;;;;;;;;;;;;;20.86;30.72;94204.53;10355521;28;2211;-45
2022/01/08 22:50:44;;;;;;;;;;;;;;;20.84;30.77;94183.00;10355686;28;1857;-41
2022/01/08 22:55:45;;;;;;;;;;;;;;;20.86;30.84;94161.63;10353488;28;1958;-44
2022/01/08 23:00:52;;;;;;;;;;;;;;;20.85;31.04;94141.66;10354223;28;1883;-44
2022/01/08 23:05:56;;;;;;;;;;;;;;;20.84;31.03;94127.69;10350365;28;1793;-42
2022/01/08 23:10:57;;;;;;;;;;;;;;;20.86;30.72;94107.09;10352188;28;1887;-41
2022/01/08 23:15:58;;;;;;;;;;;;;;;20.84;30.76;94106.63;10354704;28;1910;-42
2022/01/08 23:20:59;;;;;;;;;;;;;;;20.83;30.66;94097.19;10352876;28;1839;-41
2022/01/08 23:25:59;;;;;;;;;;;;;;;20.84;30.79;94069.75;10353268;28;1892;-39
2022/01/08 23:30:59;;;;;;;;;;;;;;;20.83;30.70;94051.66;10335084;28;1778;-42
2022/01/08 23:36:00;;;;;;;;;;;;;;;20.83;30.70;94035.84;10353810;28;1914;-40
2022/01/08 23:41:00;;;;;;;;;;;;;;;20.85;30.60;94028.41;10353950;28;1831;-40
2022/01/08 23:46:01;;;;;;;;;;;;;;;20.84;30.64;94006.56;10352718;28;1815;-40
2022/01/08 23:51:03;;;;;;;;;;;;;;;20.83;30.72;94010.31;10350511;28;1945;-42
2022/01/08 23:56:04;;;;;;;;;;;;;;;20.82;30.87;93992.16;10350755;28;2151;-40
